Time,TemperatureF,DewpointF,PressureIn,WindDirection,WindDirectionDegrees,WindSpeedMPH,WindSpeedGustMPH,Humidity,HourlyPrecipIn,Conditions,Clouds,dailyrainin,SolarRadiationWatts/m^2,SoftwareType,DateUTC
2013-02-01 00:12:00,30.0,18.0,-100.00,SW,214,9.0,16.0,60,0.00,,,0.01,0.000000,,2013-02-01 07:12:00,
2013-02-01 00:21:00,30.0,18.0,-100.00,SW,214,9.0,16.0,60,0.00,,,0.01,0.000000,,2013-02-01 07:21:00,
2013-02-01 00:32:00,30.0,18.0,-100.00,SW,214,9.0,16.0,60,0.00,,,0.01,0.000000,,2013-02-01 07:32:00,
2013-02-01 00:41:00,30.0,18.0,-100.00,SW,214,9.0,16.0,60,0.00,,,0.01,0.000000,,2013-02-01 07:41:00,
2013-02-01 01:11:00,28.0,17.0,-100.00,SW,233,3.0,14.0,64,0.00,,,0.01,0.000000,,2013-02-01 08:11:00,
2013-02-01 01:21:00,28.0,17.0,-100.00,SW,233,3.0,14.0,64,0.00,,,0.01,0.000000,,2013-02-01 08:21:00,
2013-02-01 01:31:00,28.0,17.0,-100.00,SW,233,3.0,14.0,64,0.00,,,0.01,0.000000,,2013-02-01 08:31:00,
2013-02-01 01:42:00,28.0,17.0,-100.00,SW,233,3.0,14.0,64,0.00,,,0.01,0.000000,,2013-02-01 08:42:00,
2013-02-01 02:11:00,29.0,18.0,-100.00,SSW,213,7.0,10.0,62,0.00,,,0.01,0.000000,,2013-02-01 09:11:00,
2013-02-01 02:21:00,29.0,18.0,-100.00,SSW,213,7.0,10.0,62,0.00,,,0.01,0.000000,,2013-02-01 09:21:00,
2013-02-01 02:32:00,29.0,18.0,-100.00,SSW,213,7.0,10.0,62,0.00,,,0.01,0.000000,,2013-02-01 09:32:00,
2013-02-01 02:41:00,29.0,18.0,-100.00,SSW,213,7.0,10.0,62,0.00,,,0.01,0.000000,,2013-02-01 09:41:00,
2013-02-01 03:11:00,27.0,18.0,-100.00,WNW,296,2.0,15.0,67,0.00,,,0.01,0.000000,,2013-02-01 10:11:00,
2013-02-01 03:21:00,27.0,18.0,-100.00,WNW,296,2.0,15.0,67,0.00,,,0.01,0.000000,,2013-02-01 10:21:00,
2013-02-01 03:31:00,27.0,18.0,-100.00,WNW,296,2.0,15.0,67,0.00,,,0.01,0.000000,,2013-02-01 10:31:00,
2013-02-01 03:42:00,27.0,18.0,-100.00,WNW,296,2.0,15.0,67,0.00,,,0.01,0.000000,,2013-02-01 10:42:00,
2013-02-01 04:11:00,21.0,15.0,-100.00,SE,139,4.0,6.0,78,0.00,,,0.01,0.000000,,2013-02-01 11:11:00,
2013-02-01 04:21:00,21.0,15.0,-100.00,SE,139,4.0,6.0,78,0.00,,,0.01,0.000000,,2013-02-01 11:21:00,
2013-02-01 04:32:00,21.0,15.0,-100.00,SE,139,4.0,6.0,78,0.00,,,0.01,0.000000,,2013-02-01 11:32:00,
2013-02-01 04:41:00,21.0,15.0,-100.00,SE,139,4.0,6.0,78,0.00,,,0.01,0.000000,,2013-02-01 11:41:00,
2013-02-01 05:12:00,22.0,17.0,-100.00,SW,231,1.0,6.0,80,0.00,,,0.01,0.000000,,2013-02-01 12:12:00,
2013-02-01 05:22:00,22.0,17.0,-100.00,SW,231,1.0,6.0,80,0.00,,,0.01,0.000000,,2013-02-01 12:22:00,
2013-02-01 05:32:00,22.0,17.0,-100.00,SW,231,1.0,6.0,80,0.00,,,0.01,0.000000,,2013-02-01 12:32:00,
2013-02-01 05:42:00,22.0,17.0,-100.00,SW,231,1.0,6.0,80,0.00,,,0.01,0.000000,,2013-02-01 12:42:00,
2013-02-01 06:11:00,19.0,15.0,-100.00,SSE,150,4.0,6.0,83,0.00,,,0.01,0.000000,,2013-02-01 13:11:00,
2013-02-01 06:21:00,19.0,15.0,-100.00,SSE,150,4.0,6.0,83,0.00,,,0.01,0.000000,,2013-02-01 13:21:00,
2013-02-01 06:32:00,19.0,15.0,-100.00,SSE,150,4.0,6.0,83,0.00,,,0.01,0.000000,,2013-02-01 13:32:00,
2013-02-01 06:42:00,19.0,15.0,-100.00,SSE,150,4.0,6.0,83,0.00,,,0.01,0.000000,,2013-02-01 13:42:00,
2013-02-01 07:11:00,23.0,16.0,-100.00,West,279,3.0,12.0,74,0.00,,,-99.99,0.000000,,2013-02-01 14:11:00,
2013-02-01 07:21:00,23.0,16.0,-100.00,West,279,3.0,12.0,74,0.00,,,-99.99,0.000000,,2013-02-01 14:21:00,
2013-02-01 07:32:00,23.0,16.0,-100.00,West,279,3.0,12.0,74,0.00,,,-99.99,0.000000,,2013-02-01 14:32:00,
2013-02-01 07:42:00,23.0,16.0,-100.00,West,279,3.0,12.0,74,0.00,,,-99.99,0.000000,,2013-02-01 14:42:00,
2013-02-01 08:12:00,20.0,15.0,-100.00,SSE,147,5.0,6.0,82,0.00,,,0.01,5.000000,,2013-02-01 15:12:00,
2013-02-01 08:21:00,20.0,15.0,-100.00,SSE,147,5.0,6.0,82,0.00,,,0.01,5.000000,,2013-02-01 15:21:00,
2013-02-01 08:32:00,20.0,15.0,-100.00,SSE,147,5.0,6.0,82,0.00,,,0.01,5.000000,,2013-02-01 15:32:00,
2013-02-01 08:42:00,20.0,15.0,-100.00,SSE,147,5.0,6.0,82,0.00,,,0.01,5.000000,,2013-02-01 15:42:00,
2013-02-01 09:11:00,32.0,19.0,-100.00,South,171,5.0,8.0,59,0.00,,,0.01,117.000000,,2013-02-01 16:11:00,
2013-02-01 09:22:00,32.0,19.0,-100.00,South,171,5.0,8.0,59,0.00,,,0.01,117.000000,,2013-02-01 16:22:00,
2013-02-01 09:32:00,32.0,19.0,-100.00,South,171,5.0,8.0,59,0.00,,,0.01,117.000000,,2013-02-01 16:32:00,
2013-02-01 09:42:00,32.0,19.0,-100.00,South,171,5.0,8.0,59,0.00,,,0.01,117.000000,,2013-02-01 16:42:00,
2013-02-01 10:11:00,35.0,20.0,-100.00,NNW,328,6.0,11.0,54,0.00,,,0.01,314.000000,,2013-02-01 17:11:00,
2013-02-01 10:22:00,35.0,20.0,-100.00,NNW,328,6.0,11.0,54,0.00,,,0.01,314.000000,,2013-02-01 17:22:00,
2013-02-01 10:32:00,35.0,20.0,-100.00,NNW,328,6.0,11.0,54,0.00,,,0.01,314.000000,,2013-02-01 17:32:00,
2013-02-01 10:41:00,35.0,20.0,-100.00,NNW,328,6.0,11.0,54,0.00,,,0.01,314.000000,,2013-02-01 17:41:00,
2013-02-01 11:12:00,38.0,22.0,-100.00,North,358,4.0,8.0,51,0.00,,,0.01,480.000000,,2013-02-01 18:12:00,
2013-02-01 11:22:00,38.0,22.0,-100.00,North,358,4.0,8.0,51,0.00,,,0.01,480.000000,,2013-02-01 18:22:00,
2013-02-01 11:31:00,38.0,22.0,-100.00,North,358,4.0,8.0,51,0.00,,,0.01,480.000000,,2013-02-01 18:31:00,
2013-02-01 11:42:00,38.0,22.0,-100.00,North,358,4.0,8.0,51,0.00,,,0.01,480.000000,,2013-02-01 18:42:00,
2013-02-01 12:02:00,43.0,23.0,-100.00,WNW,296,5.0,12.0,45,0.00,,,0.00,598.000000,,2013-02-01 19:02:00,
2013-02-01 12:11:00,43.0,23.0,-100.00,WNW,296,5.0,12.0,45,0.00,,,0.00,598.000000,,2013-02-01 19:11:00,
2013-02-01 12:21:00,43.0,23.0,-100.00,WNW,296,5.0,12.0,45,0.00,,,0.00,598.000000,,2013-02-01 19:21:00,
2013-02-01 12:32:00,43.0,23.0,-100.00,WNW,296,5.0,12.0,45,0.00,,,0.00,598.000000,,2013-02-01 19:32:00,
2013-02-01 12:41:00,43.0,23.0,-100.00,WNW,296,5.0,12.0,45,0.00,,,0.00,598.000000,,2013-02-01 19:41:00,
2013-02-01 13:11:00,43.0,19.0,-100.00,WSW,252,9.0,20.0,38,0.00,,,0.00,656.000000,,2013-02-01 20:11:00,
2013-02-01 13:21:00,43.0,19.0,-100.00,WSW,252,9.0,20.0,38,0.00,,,0.00,656.000000,,2013-02-01 20:21:00,
2013-02-01 13:31:00,43.0,19.0,-100.00,WSW,252,9.0,20.0,38,0.00,,,0.00,656.000000,,2013-02-01 20:31:00,
2013-02-01 13:41:00,43.0,19.0,-100.00,WSW,252,9.0,20.0,38,0.00,,,0.00,656.000000,,2013-02-01 20:41:00,
2013-02-01 14:11:00,44.0,21.0,-100.00,West,269,8.0,20.0,39,0.00,,,0.00,644.000000,,2013-02-01 21:11:00,
2013-02-01 14:21:00,44.0,21.0,-100.00,West,269,8.0,20.0,39,0.00,,,0.00,644.000000,,2013-02-01 21:21:00,
2013-02-01 14:31:00,44.0,21.0,-100.00,West,269,8.0,20.0,39,0.00,,,0.00,644.000000,,2013-02-01 21:31:00,
2013-02-01 14:41:00,44.0,21.0,-100.00,West,269,8.0,20.0,39,0.00,,,0.00,644.000000,,2013-02-01 21:41:00,
2013-02-01 15:11:00,42.0,21.0,-100.00,WSW,250,10.0,19.0,42,0.00,,,0.00,566.000000,,2013-02-01 22:11:00,
2013-02-01 15:21:00,42.0,21.0,-100.00,WSW,250,10.0,19.0,42,0.00,,,0.00,566.000000,,2013-02-01 22:21:00,
2013-02-01 15:32:00,42.0,21.0,-100.00,WSW,250,10.0,19.0,42,0.00,,,0.00,566.000000,,2013-02-01 22:32:00,
2013-02-01 15:42:00,42.0,21.0,-100.00,WSW,250,10.0,19.0,42,0.00,,,0.00,566.000000,,2013-02-01 22:42:00,
2013-02-01 16:11:00,41.0,19.0,-100.00,WSW,240,10.0,23.0,41,0.00,,,0.00,427.000000,,2013-02-01 23:11:00,
2013-02-01 16:21:00,41.0,19.0,-100.00,WSW,240,10.0,23.0,41,0.00,,,0.00,427.000000,,2013-02-01 23:21:00,
2013-02-01 16:31:00,41.0,19.0,-100.00,WSW,240,10.0,23.0,41,0.00,,,0.00,427.000000,,2013-02-01 23:31:00,
2013-02-01 16:41:00,41.0,19.0,-100.00,WSW,240,10.0,23.0,41,0.00,,,0.00,427.000000,,2013-02-01 23:41:00,
2013-02-01 17:11:00,37.0,19.0,-100.00,SW,218,13.0,21.0,47,0.00,,,0.00,246.000000,,2013-02-02 00:11:00,
2013-02-01 17:21:00,37.0,19.0,-100.00,SW,218,13.0,21.0,47,0.00,,,0.00,246.000000,,2013-02-02 00:21:00,
2013-02-01 17:32:00,37.0,19.0,-100.00,SW,218,13.0,21.0,47,0.00,,,0.00,246.000000,,2013-02-02 00:32:00,
2013-02-01 17:41:00,37.0,19.0,-100.00,SW,218,13.0,21.0,47,0.00,,,0.00,246.000000,,2013-02-02 00:41:00,
2013-02-01 18:11:00,34.0,16.0,-100.00,SW,225,10.0,21.0,48,0.00,,,0.00,24.000000,,2013-02-02 01:11:00,
2013-02-01 18:21:00,34.0,16.0,-100.00,SW,225,10.0,21.0,48,0.00,,,0.00,24.000000,,2013-02-02 01:21:00,
2013-02-01 18:31:00,34.0,16.0,-100.00,SW,225,10.0,21.0,48,0.00,,,0.00,24.000000,,2013-02-02 01:31:00,
2013-02-01 18:41:00,34.0,16.0,-100.00,SW,225,10.0,21.0,48,0.00,,,0.00,24.000000,,2013-02-02 01:41:00,
2013-02-01 19:11:00,32.0,15.0,-100.00,WSW,238,7.0,14.0,50,0.00,,,0.00,0.000000,,2013-02-02 02:11:00,
2013-02-01 19:21:00,32.0,15.0,-100.00,WSW,238,7.0,14.0,50,0.00,,,0.00,0.000000,,2013-02-02 02:21:00,
2013-02-01 19:31:00,32.0,15.0,-100.00,WSW,238,7.0,14.0,50,0.00,,,0.00,0.000000,,2013-02-02 02:31:00,
2013-02-01 19:41:00,32.0,15.0,-100.00,WSW,238,7.0,14.0,50,0.00,,,0.00,0.000000,,2013-02-02 02:41:00,
2013-02-01 20:11:00,33.0,17.0,-100.00,WSW,243,8.0,15.0,51,0.00,,,0.00,0.000000,,2013-02-02 03:11:00,
2013-02-01 20:21:00,33.0,17.0,-100.00,WSW,243,8.0,15.0,51,0.00,,,0.00,0.000000,,2013-02-02 03:21:00,
2013-02-01 20:32:00,33.0,17.0,-100.00,WSW,243,8.0,15.0,51,0.00,,,0.00,0.000000,,2013-02-02 03:32:00,
2013-02-01 20:42:00,33.0,17.0,-100.00,WSW,243,8.0,15.0,51,0.00,,,0.00,0.000000,,2013-02-02 03:42:00,
2013-02-01 21:11:00,29.0,16.0,-100.00,WNW,301,0.0,13.0,58,0.00,,,0.00,0.000000,,2013-02-02 04:11:00,
2013-02-01 21:21:00,29.0,16.0,-100.00,WNW,301,0.0,13.0,58,0.00,,,0.00,0.000000,,2013-02-02 04:21:00,
2013-02-01 21:32:00,29.0,16.0,-100.00,WNW,301,0.0,13.0,58,0.00,,,0.00,0.000000,,2013-02-02 04:32:00,
2013-02-01 21:41:00,29.0,16.0,-100.00,WNW,301,0.0,13.0,58,0.00,,,0.00,0.000000,,2013-02-02 04:41:00,
2013-02-01 22:11:00,26.0,14.0,-100.00,SSW,195,2.0,4.0,61,0.00,,,0.00,0.000000,,2013-02-02 05:11:00,
2013-02-01 22:22:00,26.0,14.0,-100.00,SSW,195,2.0,4.0,61,0.00,,,0.00,0.000000,,2013-02-02 05:22:00,
2013-02-01 22:33:00,26.0,14.0,-100.00,SSW,195,2.0,4.0,61,0.00,,,0.00,0.000000,,2013-02-02 05:33:00,
2013-02-01 22:41:00,26.0,14.0,-100.00,SSW,195,2.0,4.0,61,0.00,,,0.00,0.000000,,2013-02-02 05:41:00,
2013-02-01 23:12:00,26.0,16.0,-100.00,SW,214,2.0,4.0,64,0.00,,,0.00,0.000000,,2013-02-02 06:12:00,
2013-02-01 23:21:00,26.0,16.0,-100.00,SW,214,2.0,4.0,64,0.00,,,0.00,0.000000,,2013-02-02 06:21:00,
2013-02-01 23:31:00,26.0,16.0,-100.00,SW,214,2.0,4.0,64,0.00,,,0.00,0.000000,,2013-02-02 06:31:00,
2013-02-01 23:41:00,26.0,16.0,-100.00,SW,214,2.0,4.0,64,0.00,,,0.00,0.000000,,2013-02-02 06:41:00,